sensor_id;sensor_type;location;lat;lon;timestamp;pressure;altitude;pressure_sealevel;temperature;humidity
39267;BME280;24967;51.154;13.812;2022-08-19T00:01:28;98671.69;;;23.49;77.41
39267;BME280;24967;51.154;13.812;2022-08-19T00:03:55;98682.53;;;23.49;77.61
39267;BME280;24967;51.154;13.812;2022-08-19T00:06:21;98677.50;;;23.63;77.21
39267;BME280;24967;51.154;13.812;2022-08-19T00:08:48;98676.13;;;23.33;78.71
39267;BME280;24967;51.154;13.812;2022-08-19T00:11:16;98689.69;;;23.60;77.09
39267;BME280;24967;51.154;13.812;2022-08-19T00:13:43;98686.66;;;23.57;77.79
39267;BME280;24967;51.154;13.812;2022-08-19T00:16:11;98672.78;;;23.53;77.63
39267;BME280;24967;51.154;13.812;2022-08-19T00:18:38;98672.28;;;23.56;77.28
39267;BME280;24967;51.154;13.812;2022-08-19T00:21:05;98672.44;;;23.44;77.79
39267;BME280;24967;51.154;13.812;2022-08-19T00:23:32;98672.91;;;23.36;78.24
39267;BME280;24967;51.154;13.812;2022-08-19T00:26:00;98675.94;;;23.45;77.83
39267;BME280;24967;51.154;13.812;2022-08-19T00:28:26;98680.56;;;23.44;78.30
39267;BME280;24967;51.154;13.812;2022-08-19T00:30:52;98704.81;;;23.29;79.10
39267;BME280;24967;51.154;13.812;2022-08-19T00:33:19;98703.28;;;23.38;78.61
39267;BME280;24967;51.154;13.812;2022-08-19T00:35:47;98711.91;;;23.35;78.72
39267;BME280;24967;51.154;13.812;2022-08-19T00:38:14;98695.47;;;23.20;79.39
39267;BME280;24967;51.154;13.812;2022-08-19T00:40:42;98712.38;;;23.05;80.56
39267;BME280;24967;51.154;13.812;2022-08-19T00:43:11;98718.69;;;23.11;80.75
39267;BME280;24967;51.154;13.812;2022-08-19T00:45:38;98726.50;;;23.29;80.14
39267;BME280;24967;51.154;13.812;2022-08-19T00:48:06;98726.19;;;23.25;80.28
39267;BME280;24967;51.154;13.812;2022-08-19T00:50:33;98719.50;;;23.11;81.12
39267;BME280;24967;51.154;13.812;2022-08-19T00:53:02;98718.50;;;23.17;81.31
39267;BME280;24967;51.154;13.812;2022-08-19T00:55:31;98719.88;;;22.98;82.05
39267;BME280;24967;51.154;13.812;2022-08-19T00:58:01;98708.22;;;22.80;83.95
39267;BME280;24967;51.154;13.812;2022-08-19T01:00:30;98706.94;;;22.66;84.82
39267;BME280;24967;51.154;13.812;2022-08-19T01:02:58;98709.63;;;22.83;84.31
39267;BME280;24967;51.154;13.812;2022-08-19T01:05:27;98705.44;;;22.75;85.30
39267;BME280;24967;51.154;13.812;2022-08-19T01:07:56;98702.19;;;22.73;85.45
39267;BME280;24967;51.154;13.812;2022-08-19T01:10:27;98711.59;;;22.49;87.61
39267;BME280;24967;51.154;13.812;2022-08-19T01:12:56;98703.72;;;22.30;89.17
39267;BME280;24967;51.154;13.812;2022-08-19T01:15:27;98697.66;;;22.40;89.11
39267;BME280;24967;51.154;13.812;2022-08-19T01:17:56;98694.50;;;22.14;91.48
39267;BME280;24967;51.154;13.812;2022-08-19T01:20:24;98697.81;;;22.33;90.34
39267;BME280;24967;51.154;13.812;2022-08-19T01:22:54;98697.38;;;22.41;89.66
39267;BME280;24967;51.154;13.812;2022-08-19T01:25:24;98707.47;;;22.29;90.54
39267;BME280;24967;51.154;13.812;2022-08-19T01:27:51;98701.25;;;22.46;89.61
39267;BME280;24967;51.154;13.812;2022-08-19T01:30:22;98710.94;;;22.25;91.19
39267;BME280;24967;51.154;13.812;2022-08-19T01:32:49;98726.41;;;22.12;92.19
39267;BME280;24967;51.154;13.812;2022-08-19T01:35:18;98737.78;;;22.14;92.49
39267;BME280;24967;51.154;13.812;2022-08-19T01:37:47;98727.63;;;22.05;93.24
39267;BME280;24967;51.154;13.812;2022-08-19T01:40:17;98731.41;;;22.04;93.32
39267;BME280;24967;51.154;13.812;2022-08-19T01:42:44;98716.81;;;21.88;94.45
39267;BME280;24967;51.154;13.812;2022-08-19T01:45:10;98717.69;;;21.93;94.38
39267;BME280;24967;51.154;13.812;2022-08-19T01:47:38;98715.78;;;22.23;92.38
39267;BME280;24967;51.154;13.812;2022-08-19T01:50:07;98712.72;;;22.36;91.46
39267;BME280;24967;51.154;13.812;2022-08-19T01:52:34;98709.19;;;22.35;91.27
39267;BME280;24967;51.154;13.812;2022-08-19T01:55:01;98706.47;;;21.85;95.16
39267;BME280;24967;51.154;13.812;2022-08-19T01:57:28;98711.28;;;22.00;94.44
39267;BME280;24967;51.154;13.812;2022-08-19T01:59:55;98713.69;;;22.13;93.50
39267;BME280;24967;51.154;13.812;2022-08-19T02:02:22;98724.16;;;22.21;92.75
39267;BME280;24967;51.154;13.812;2022-08-19T02:04:48;98732.59;;;22.25;92.60
39267;BME280;24967;51.154;13.812;2022-08-19T02:07:15;98737.34;;;22.17;92.98
39267;BME280;24967;51.154;13.812;2022-08-19T02:09:41;98738.00;;;22.25;92.63
39267;BME280;24967;51.154;13.812;2022-08-19T02:12:08;98734.00;;;22.27;92.83
39267;BME280;24967;51.154;13.812;2022-08-19T02:14:36;98724.47;;;22.41;91.36
39267;BME280;24967;51.154;13.812;2022-08-19T02:17:03;98710.50;;;22.50;90.88
39267;BME280;24967;51.154;13.812;2022-08-19T02:19:30;98699.59;;;22.45;91.36
39267;BME280;24967;51.154;13.812;2022-08-19T02:21:57;98691.41;;;22.23;92.38
39267;BME280;24967;51.154;13.812;2022-08-19T02:24:26;98709.47;;;22.34;91.50
39267;BME280;24967;51.154;13.812;2022-08-19T02:26:53;98718.78;;;22.60;89.98
39267;BME280;24967;51.154;13.812;2022-08-19T02:29:20;98722.75;;;22.35;91.48
39267;BME280;24967;51.154;13.812;2022-08-19T02:31:48;98723.00;;;22.34;91.90
39267;BME280;24967;51.154;13.812;2022-08-19T02:34:14;98732.41;;;22.65;89.91
39267;BME280;24967;51.154;13.812;2022-08-19T02:36:40;98725.38;;;22.86;87.97
39267;BME280;24967;51.154;13.812;2022-08-19T02:39:07;98721.84;;;22.85;88.05
39267;BME280;24967;51.154;13.812;2022-08-19T02:41:33;98720.69;;;22.98;86.81
39267;BME280;24967;51.154;13.812;2022-08-19T02:44:02;98717.44;;;22.79;87.42
39267;BME280;24967;51.154;13.812;2022-08-19T02:46:30;98709.13;;;23.03;86.59
39267;BME280;24967;51.154;13.812;2022-08-19T02:49:06;98704.00;;;23.06;86.33
39267;BME280;24967;51.154;13.812;2022-08-19T02:51:35;98708.16;;;23.14;85.26
39267;BME280;24967;51.154;13.812;2022-08-19T02:54:02;98703.91;;;23.23;84.23
39267;BME280;24967;51.154;13.812;2022-08-19T02:56:29;98714.47;;;23.20;84.94
39267;BME280;24967;51.154;13.812;2022-08-19T02:58:56;98711.63;;;23.31;84.42
39267;BME280;24967;51.154;13.812;2022-08-19T03:01:26;98724.97;;;23.38;83.14
39267;BME280;24967;51.154;13.812;2022-08-19T03:03:53;98729.28;;;23.34;83.91
39267;BME280;24967;51.154;13.812;2022-08-19T03:06:22;98732.38;;;23.21;84.96
39267;BME280;24967;51.154;13.812;2022-08-19T03:08:49;98727.81;;;23.04;86.22
39267;BME280;24967;51.154;13.812;2022-08-19T03:11:17;98730.28;;;23.06;86.19
39267;BME280;24967;51.154;13.812;2022-08-19T03:13:44;98736.66;;;23.17;85.28
39267;BME280;24967;51.154;13.812;2022-08-19T03:16:14;98728.94;;;23.08;85.77
39267;BME280;24967;51.154;13.812;2022-08-19T03:18:41;98726.06;;;23.15;84.86
39267;BME280;24967;51.154;13.812;2022-08-19T03:21:08;98715.91;;;23.27;84.31
39267;BME280;24967;51.154;13.812;2022-08-19T03:23:36;98722.31;;;22.99;85.39
39267;BME280;24967;51.154;13.812;2022-08-19T03:26:04;98724.03;;;23.05;85.23
39267;BME280;24967;51.154;13.812;2022-08-19T03:28:31;98724.22;;;22.99;86.43
39267;BME280;24967;51.154;13.812;2022-08-19T03:31:01;98720.00;;;23.08;85.48
39267;BME280;24967;51.154;13.812;2022-08-19T03:33:28;98726.19;;;23.03;85.45
39267;BME280;24967;51.154;13.812;2022-08-19T03:36:07;98733.00;;;23.06;85.03
39267;BME280;24967;51.154;13.812;2022-08-19T03:38:37;98733.00;;;23.06;85.15
39267;BME280;24967;51.154;13.812;2022-08-19T03:41:05;98735.75;;;23.11;85.33
39267;BME280;24967;51.154;13.812;2022-08-19T03:43:36;98734.13;;;23.32;83.20
39267;BME280;24967;51.154;13.812;2022-08-19T03:46:05;98734.88;;;23.05;85.11
39267;BME280;24967;51.154;13.812;2022-08-19T03:48:33;98737.59;;;23.05;85.35
39267;BME280;24967;51.154;13.812;2022-08-19T03:51:00;98737.28;;;22.85;86.80
39267;BME280;24967;51.154;13.812;2022-08-19T03:53:27;98736.25;;;23.08;85.47
39267;BME280;24967;51.154;13.812;2022-08-19T03:55:56;98741.56;;;22.98;85.56
39267;BME280;24967;51.154;13.812;2022-08-19T03:58:25;98743.13;;;22.94;85.91
39267;BME280;24967;51.154;13.812;2022-08-19T04:00:53;98740.75;;;22.97;85.42
39267;BME280;24967;51.154;13.812;2022-08-19T04:03:19;98747.47;;;22.95;85.59
39267;BME280;24967;51.154;13.812;2022-08-19T04:05:45;98748.19;;;23.07;85.17
39267;BME280;24967;51.154;13.812;2022-08-19T04:08:13;98752.22;;;23.04;85.11
39267;BME280;24967;51.154;13.812;2022-08-19T04:10:44;98748.31;;;23.17;84.55
39267;BME280;24967;51.154;13.812;2022-08-19T04:13:11;98745.66;;;23.22;84.20
39267;BME280;24967;51.154;13.812;2022-08-19T04:15:40;98755.50;;;23.50;82.36
39267;BME280;24967;51.154;13.812;2022-08-19T04:18:07;98751.03;;;23.17;83.97
39267;BME280;24967;51.154;13.812;2022-08-19T04:20:39;98740.88;;;23.07;84.84
39267;BME280;24967;51.154;13.812;2022-08-19T04:23:06;98747.06;;;23.25;84.13
39267;BME280;24967;51.154;13.812;2022-08-19T04:25:36;98737.59;;;23.27;83.75
39267;BME280;24967;51.154;13.812;2022-08-19T04:28:02;98733.13;;;23.16;83.85
39267;BME280;24967;51.154;13.812;2022-08-19T04:30:30;98733.44;;;23.20;84.05
39267;BME280;24967;51.154;13.812;2022-08-19T04:32:57;98736.25;;;23.08;84.87
39267;BME280;24967;51.154;13.812;2022-08-19T04:35:23;98745.25;;;23.30;83.42
39267;BME280;24967;51.154;13.812;2022-08-19T04:37:50;98748.13;;;23.02;84.54
39267;BME280;24967;51.154;13.812;2022-08-19T04:40:16;98753.69;;;23.12;84.25
39267;BME280;24967;51.154;13.812;2022-08-19T04:43:00;98754.06;;;22.82;85.79
39267;BME280;24967;51.154;13.812;2022-08-19T04:45:27;98736.97;;;22.98;85.49
39267;BME280;24967;51.154;13.812;2022-08-19T04:47:55;98737.91;;;23.09;85.00
39267;BME280;24967;51.154;13.812;2022-08-19T04:50:22;98737.66;;;23.11;84.18
39267;BME280;24967;51.154;13.812;2022-08-19T04:52:50;98745.16;;;23.03;84.81
39267;BME280;24967;51.154;13.812;2022-08-19T04:55:17;98748.56;;;23.16;84.21
39267;BME280;24967;51.154;13.812;2022-08-19T04:57:43;98751.81;;;22.96;85.70
39267;BME280;24967;51.154;13.812;2022-08-19T05:00:11;98744.41;;;23.08;84.52
39267;BME280;24967;51.154;13.812;2022-08-19T05:02:38;98744.72;;;23.12;84.83
39267;BME280;24967;51.154;13.812;2022-08-19T05:05:06;98745.09;;;23.20;83.72
39267;BME280;24967;51.154;13.812;2022-08-19T05:07:33;98733.00;;;22.89;85.54
39267;BME280;24967;51.154;13.812;2022-08-19T05:10:00;98736.03;;;23.09;84.49
39267;BME280;24967;51.154;13.812;2022-08-19T05:12:26;98734.41;;;22.92;85.54
39267;BME280;24967;51.154;13.812;2022-08-19T05:14:53;98737.97;;;23.14;84.17
39267;BME280;24967;51.154;13.812;2022-08-19T05:17:21;98754.81;;;22.94;85.62
39267;BME280;24967;51.154;13.812;2022-08-19T05:19:48;98748.94;;;22.85;86.09
39267;BME280;24967;51.154;13.812;2022-08-19T05:22:33;98767.03;;;22.80;86.24
39267;BME280;24967;51.154;13.812;2022-08-19T05:25:03;98777.50;;;22.93;85.80
39267;BME280;24967;51.154;13.812;2022-08-19T05:27:30;98782.91;;;22.93;85.83
39267;BME280;24967;51.154;13.812;2022-08-19T05:29:57;98782.16;;;23.15;84.45
39267;BME280;24967;51.154;13.812;2022-08-19T05:32:23;98795.16;;;23.13;84.28
39267;BME280;24967;51.154;13.812;2022-08-19T05:34:50;98798.63;;;22.91;85.10
39267;BME280;24967;51.154;13.812;2022-08-19T05:37:16;98788.63;;;22.58;87.82
39267;BME280;24967;51.154;13.812;2022-08-19T05:39:44;98800.22;;;22.70;86.79
39267;BME280;24967;51.154;13.812;2022-08-19T05:42:11;98802.00;;;22.48;88.65
39267;BME280;24967;51.154;13.812;2022-08-19T05:44:41;98807.84;;;22.56;87.74
39267;BME280;24967;51.154;13.812;2022-08-19T05:47:10;98812.75;;;22.76;87.00
39267;BME280;24967;51.154;13.812;2022-08-19T05:49:37;98820.22;;;22.86;85.87
39267;BME280;24967;51.154;13.812;2022-08-19T05:52:06;98831.72;;;22.43;88.31
39267;BME280;24967;51.154;13.812;2022-08-19T05:54:34;98836.94;;;22.32;89.26
39267;BME280;24967;51.154;13.812;2022-08-19T05:57:02;98846.13;;;22.31;89.23
39267;BME280;24967;51.154;13.812;2022-08-19T05:59:29;98847.81;;;22.49;88.08
39267;BME280;24967;51.154;13.812;2022-08-19T06:01:55;98845.19;;;22.54;87.71
39267;BME280;24967;51.154;13.812;2022-08-19T06:04:22;98841.09;;;22.52;88.47
39267;BME280;24967;51.154;13.812;2022-08-19T06:06:51;98849.13;;;22.47;88.28
39267;BME280;24967;51.154;13.812;2022-08-19T06:09:19;98856.47;;;22.34;89.44
39267;BME280;24967;51.154;13.812;2022-08-19T06:11:47;98857.81;;;22.49;89.19
39267;BME280;24967;51.154;13.812;2022-08-19T06:14:21;98863.25;;;22.49;89.46
39267;BME280;24967;51.154;13.812;2022-08-19T06:16:48;98876.25;;;22.06;92.47
39267;BME280;24967;51.154;13.812;2022-08-19T06:19:17;98889.56;;;21.96;93.30
39267;BME280;24967;51.154;13.812;2022-08-19T06:21:47;98899.34;;;21.97;93.35
39267;BME280;24967;51.154;13.812;2022-08-19T06:24:16;98899.97;;;22.16;92.18
39267;BME280;24967;51.154;13.812;2022-08-19T06:26:46;98905.59;;;22.26;91.54
39267;BME280;24967;51.154;13.812;2022-08-19T06:29:14;98911.88;;;22.15;92.17
39267;BME280;24967;51.154;13.812;2022-08-19T06:31:45;98917.41;;;22.20;92.01
39267;BME280;24967;51.154;13.812;2022-08-19T06:34:12;98913.56;;;22.33;91.11
39267;BME280;24967;51.154;13.812;2022-08-19T06:36:42;98916.31;;;21.81;94.28
39267;BME280;24967;51.154;13.812;2022-08-19T06:39:11;98921.09;;;21.90;94.13
39267;BME280;24967;51.154;13.812;2022-08-19T06:41:40;98928.72;;;22.05;93.36
39267;BME280;24967;51.154;13.812;2022-08-19T06:44:07;98925.69;;;21.90;95.20
39267;BME280;24967;51.154;13.812;2022-08-19T06:46:33;98926.66;;;21.84;95.97
39267;BME280;24967;51.154;13.812;2022-08-19T06:49:02;98918.47;;;21.67;96.63
39267;BME280;24967;51.154;13.812;2022-08-19T06:51:29;98918.50;;;21.95;95.13
39267;BME280;24967;51.154;13.812;2022-08-19T06:53:58;98927.09;;;21.92;94.75
39267;BME280;24967;51.154;13.812;2022-08-19T06:56:27;98928.19;;;21.91;95.36
39267;BME280;24967;51.154;13.812;2022-08-19T06:58:56;98934.59;;;22.02;94.64
39267;BME280;24967;51.154;13.812;2022-08-19T07:01:22;98944.25;;;22.22;93.20
39267;BME280;24967;51.154;13.812;2022-08-19T07:03:49;98953.53;;;22.02;93.88
39267;BME280;24967;51.154;13.812;2022-08-19T07:06:18;98963.34;;;21.91;95.44
39267;BME280;24967;51.154;13.812;2022-08-19T07:08:46;98961.97;;;21.65;97.15
39267;BME280;24967;51.154;13.812;2022-08-19T07:11:15;98961.94;;;21.89;95.83
39267;BME280;24967;51.154;13.812;2022-08-19T07:13:44;98959.50;;;21.64;97.13
39267;BME280;24967;51.154;13.812;2022-08-19T07:16:13;98958.06;;;21.85;96.90
39267;BME280;24967;51.154;13.812;2022-08-19T07:18:41;98953.25;;;21.63;97.30
39267;BME280;24967;51.154;13.812;2022-08-19T07:21:12;98939.34;;;21.95;96.26
39267;BME280;24967;51.154;13.812;2022-08-19T07:23:40;98947.56;;;22.00;95.74
39267;BME280;24967;51.154;13.812;2022-08-19T07:26:12;98940.25;;;22.01;95.59
39267;BME280;24967;51.154;13.812;2022-08-19T07:28:39;98934.84;;;22.01;96.36
39267;BME280;24967;51.154;13.812;2022-08-19T07:31:06;98943.34;;;21.81;97.00
39267;BME280;24967;51.154;13.812;2022-08-19T07:33:33;98947.94;;;21.80;97.59
39267;BME280;24967;51.154;13.812;2022-08-19T07:36:02;98954.56;;;21.72;98.64
39267;BME280;24967;51.154;13.812;2022-08-19T07:38:29;98951.84;;;21.72;98.69
39267;BME280;24967;51.154;13.812;2022-08-19T07:40:57;98959.13;;;21.84;98.64
39267;BME280;24967;51.154;13.812;2022-08-19T07:43:23;98956.97;;;22.09;96.75
39267;BME280;24967;51.154;13.812;2022-08-19T07:45:51;98969.59;;;21.68;99.58
39267;BME280;24967;51.154;13.812;2022-08-19T07:48:21;98969.22;;;21.88;98.58
39267;BME280;24967;51.154;13.812;2022-08-19T07:50:51;98966.72;;;22.10;97.10
39267;BME280;24967;51.154;13.812;2022-08-19T07:53:18;98964.53;;;21.84;98.82
39267;BME280;24967;51.154;13.812;2022-08-19T07:55:45;98955.75;;;22.29;95.76
39267;BME280;24967;51.154;13.812;2022-08-19T07:58:15;98957.28;;;22.25;94.89
39267;BME280;24967;51.154;13.812;2022-08-19T08:00:43;98960.50;;;21.98;96.93
39267;BME280;24967;51.154;13.812;2022-08-19T08:03:10;98961.78;;;22.19;96.31
39267;BME280;24967;51.154;13.812;2022-08-19T08:05:36;98968.47;;;22.28;95.83
39267;BME280;24967;51.154;13.812;2022-08-19T08:08:20;98966.28;;;22.42;94.52
39267;BME280;24967;51.154;13.812;2022-08-19T08:11:04;98965.84;;;22.33;95.64
39267;BME280;24967;51.154;13.812;2022-08-19T08:13:32;98975.06;;;22.21;95.47
39267;BME280;24967;51.154;13.812;2022-08-19T08:16:01;98984.09;;;22.14;95.85
39267;BME280;24967;51.154;13.812;2022-08-19T08:18:28;98982.84;;;22.05;96.87
39267;BME280;24967;51.154;13.812;2022-08-19T08:20:55;98981.03;;;22.34;95.14
39267;BME280;24967;51.154;13.812;2022-08-19T08:23:21;98979.59;;;22.44;94.63
39267;BME280;24967;51.154;13.812;2022-08-19T08:25:51;98976.75;;;21.98;96.69
39267;BME280;24967;51.154;13.812;2022-08-19T08:28:18;98982.25;;;22.15;96.18
39267;BME280;24967;51.154;13.812;2022-08-19T08:30:47;98987.09;;;22.01;96.45
39267;BME280;24967;51.154;13.812;2022-08-19T08:33:17;98989.97;;;22.35;94.45
39267;BME280;24967;51.154;13.812;2022-08-19T08:35:44;98988.69;;;22.26;93.56
39267;BME280;24967;51.154;13.812;2022-08-19T08:38:12;98985.84;;;22.32;93.95
39267;BME280;24967;51.154;13.812;2022-08-19T08:40:44;98995.34;;;22.18;94.14
39267;BME280;24967;51.154;13.812;2022-08-19T08:43:24;99006.16;;;22.06;95.70
39267;BME280;24967;51.154;13.812;2022-08-19T08:46:00;99003.91;;;22.15;95.33
39267;BME280;24967;51.154;13.812;2022-08-19T08:48:34;99006.03;;;21.54;99.21
39267;BME280;24967;51.154;13.812;2022-08-19T08:51:05;99010.50;;;21.84;97.90
39267;BME280;24967;51.154;13.812;2022-08-19T08:53:34;99020.31;;;21.73;98.88
39267;BME280;24967;51.154;13.812;2022-08-19T08:56:03;99014.16;;;21.78;98.70
39267;BME280;24967;51.154;13.812;2022-08-19T08:58:36;99009.69;;;21.83;99.61
39267;BME280;24967;51.154;13.812;2022-08-19T09:01:11;99020.03;;;22.22;96.39
39267;BME280;24967;51.154;13.812;2022-08-19T09:03:40;99014.50;;;22.05;97.69
39267;BME280;24967;51.154;13.812;2022-08-19T09:06:13;99014.84;;;21.96;97.95
39267;BME280;24967;51.154;13.812;2022-08-19T09:08:48;99017.91;;;22.12;98.02
39267;BME280;24967;51.154;13.812;2022-08-19T09:11:25;99020.84;;;22.22;97.68
39267;BME280;24967;51.154;13.812;2022-08-19T09:14:06;99022.00;;;22.26;97.00
39267;BME280;24967;51.154;13.812;2022-08-19T09:16:37;99023.09;;;22.25;96.07
39267;BME280;24967;51.154;13.812;2022-08-19T09:19:06;99025.19;;;22.11;97.99
39267;BME280;24967;51.154;13.812;2022-08-19T09:21:33;99018.06;;;21.82;99.91
39267;BME280;24967;51.154;13.812;2022-08-19T09:24:00;99020.38;;;22.13;98.29
39267;BME280;24967;51.154;13.812;2022-08-19T09:26:27;99022.00;;;22.26;97.95
39267;BME280;24967;51.154;13.812;2022-08-19T09:28:54;99016.72;;;22.08;98.33
39267;BME280;24967;51.154;13.812;2022-08-19T09:31:25;99008.88;;;22.18;98.37
39267;BME280;24967;51.154;13.812;2022-08-19T09:33:53;98999.53;;;22.26;98.34
39267;BME280;24967;51.154;13.812;2022-08-19T09:36:23;99007.22;;;22.57;97.59
39267;BME280;24967;51.154;13.812;2022-08-19T09:38:51;98998.09;;;22.35;97.88
39267;BME280;24967;51.154;13.812;2022-08-19T09:41:20;98990.81;;;22.64;96.46
39267;BME280;24967;51.154;13.812;2022-08-19T09:43:49;98988.75;;;22.54;97.16
39267;BME280;24967;51.154;13.812;2022-08-19T09:46:17;98990.28;;;22.50;97.67
39267;BME280;24967;51.154;13.812;2022-08-19T09:48:46;98993.00;;;22.38;97.87
39267;BME280;24967;51.154;13.812;2022-08-19T09:51:18;98986.16;;;22.48;97.77
39267;BME280;24967;51.154;13.812;2022-08-19T09:53:47;98987.19;;;22.58;97.53
39267;BME280;24967;51.154;13.812;2022-08-19T09:56:17;98980.63;;;22.71;96.92
39267;BME280;24967;51.154;13.812;2022-08-19T09:58:44;98990.22;;;22.33;97.75
39267;BME280;24967;51.154;13.812;2022-08-19T10:01:16;98990.03;;;22.52;98.69
39267;BME280;24967;51.154;13.812;2022-08-19T10:03:49;98995.91;;;22.60;98.86
39267;BME280;24967;51.154;13.812;2022-08-19T10:06:18;98986.81;;;22.83;98.73
39267;BME280;24967;51.154;13.812;2022-08-19T10:08:45;98997.47;;;23.02;97.68
39267;BME280;24967;51.154;13.812;2022-08-19T10:11:12;99009.97;;;23.03;94.35
39267;BME280;24967;51.154;13.812;2022-08-19T10:13:42;98997.00;;;23.22;93.19
39267;BME280;24967;51.154;13.812;2022-08-19T10:16:14;98992.41;;;23.39;92.05
39267;BME280;24967;51.154;13.812;2022-08-19T10:18:42;98991.25;;;23.35;90.36
39267;BME280;24967;51.154;13.812;2022-08-19T10:21:11;98992.06;;;23.52;89.65
39267;BME280;24967;51.154;13.812;2022-08-19T10:23:42;99003.09;;;23.12;90.44
39267;BME280;24967;51.154;13.812;2022-08-19T10:26:10;99001.78;;;23.48;89.35
39267;BME280;24967;51.154;13.812;2022-08-19T10:28:37;99003.22;;;23.56;88.59
39267;BME280;24967;51.154;13.812;2022-08-19T10:31:05;99005.03;;;23.50;88.62
39267;BME280;24967;51.154;13.812;2022-08-19T10:33:32;99010.13;;;23.64;87.01
39267;BME280;24967;51.154;13.812;2022-08-19T10:36:00;99016.78;;;23.56;87.05
39267;BME280;24967;51.154;13.812;2022-08-19T10:38:27;99025.59;;;23.63;87.17
39267;BME280;24967;51.154;13.812;2022-08-19T10:40:56;99026.59;;;23.74;85.59
39267;BME280;24967;51.154;13.812;2022-08-19T10:43:23;99028.47;;;23.57;84.52
39267;BME280;24967;51.154;13.812;2022-08-19T10:45:53;99024.25;;;23.66;84.58
39267;BME280;24967;51.154;13.812;2022-08-19T10:48:22;99019.47;;;23.90;84.70
39267;BME280;24967;51.154;13.812;2022-08-19T10:50:48;99024.53;;;23.64;84.42
39267;BME280;24967;51.154;13.812;2022-08-19T10:53:32;99026.28;;;23.70;85.15
39267;BME280;24967;51.154;13.812;2022-08-19T10:56:00;99027.38;;;23.91;83.14
39267;BME280;24967;51.154;13.812;2022-08-19T10:58:44;99029.53;;;23.89;84.08
39267;BME280;24967;51.154;13.812;2022-08-19T11:01:10;99030.38;;;24.12;83.21
39267;BME280;24967;51.154;13.812;2022-08-19T11:03:38;99027.88;;;24.27;83.97
39267;BME280;24967;51.154;13.812;2022-08-19T11:06:07;99033.25;;;24.44;81.93
39267;BME280;24967;51.154;13.812;2022-08-19T11:08:35;99046.75;;;24.39;80.47
39267;BME280;24967;51.154;13.812;2022-08-19T11:11:05;99035.81;;;24.34;80.30
39267;BME280;24967;51.154;13.812;2022-08-19T11:13:34;99039.44;;;24.39;80.19
39267;BME280;24967;51.154;13.812;2022-08-19T11:16:04;99041.97;;;24.46;80.00
39267;BME280;24967;51.154;13.812;2022-08-19T11:18:33;99050.94;;;24.47;79.69
39267;BME280;24967;51.154;13.812;2022-08-19T11:21:06;99058.47;;;24.22;80.16
39267;BME280;24967;51.154;13.812;2022-08-19T11:23:33;99053.00;;;24.39;79.42
39267;BME280;24967;51.154;13.812;2022-08-19T11:25:59;99060.81;;;24.14;79.56
39267;BME280;24967;51.154;13.812;2022-08-19T11:28:27;99055.53;;;24.24;79.42
39267;BME280;24967;51.154;13.812;2022-08-19T11:30:54;99059.41;;;24.11;80.31
39267;BME280;24967;51.154;13.812;2022-08-19T11:33:21;99060.97;;;24.24;79.55
39267;BME280;24967;51.154;13.812;2022-08-19T11:35:47;99071.50;;;23.82;82.72
39267;BME280;24967;51.154;13.812;2022-08-19T11:38:14;99066.91;;;24.21;80.01
39267;BME280;24967;51.154;13.812;2022-08-19T11:40:41;99064.81;;;24.28;80.00
39267;BME280;24967;51.154;13.812;2022-08-19T11:43:08;99069.66;;;24.26;79.37
39267;BME280;24967;51.154;13.812;2022-08-19T11:45:36;99075.56;;;24.01;80.02
39267;BME280;24967;51.154;13.812;2022-08-19T11:48:02;99078.88;;;24.03;79.84
39267;BME280;24967;51.154;13.812;2022-08-19T11:50:29;99078.56;;;23.83;80.09
39267;BME280;24967;51.154;13.812;2022-08-19T11:52:55;99071.91;;;23.73;81.63
39267;BME280;24967;51.154;13.812;2022-08-19T11:55:22;99059.28;;;24.01;80.65
39267;BME280;24967;51.154;13.812;2022-08-19T11:57:48;99060.69;;;23.87;80.07
39267;BME280;24967;51.154;13.812;2022-08-19T12:00:15;99064.63;;;23.62;81.24
39267;BME280;24967;51.154;13.812;2022-08-19T12:02:43;99065.88;;;23.71;81.08
39267;BME280;24967;51.154;13.812;2022-08-19T12:05:10;99072.78;;;23.62;80.75
39267;BME280;24967;51.154;13.812;2022-08-19T12:07:36;99082.38;;;23.53;81.82
39267;BME280;24967;51.154;13.812;2022-08-19T12:10:03;99086.91;;;23.47;83.06
39267;BME280;24967;51.154;13.812;2022-08-19T12:12:30;99083.94;;;23.66;82.26
39267;BME280;24967;51.154;13.812;2022-08-19T12:14:57;99084.44;;;23.46;83.38
39267;BME280;24967;51.154;13.812;2022-08-19T12:17:24;99087.34;;;23.11;85.36
39267;BME280;24967;51.154;13.812;2022-08-19T12:19:52;99082.09;;;23.04;86.93
39267;BME280;24967;51.154;13.812;2022-08-19T12:22:19;99082.25;;;23.14;86.18
39267;BME280;24967;51.154;13.812;2022-08-19T12:24:46;99083.44;;;23.35;85.16
39267;BME280;24967;51.154;13.812;2022-08-19T12:27:13;99100.19;;;23.32;86.10
39267;BME280;24967;51.154;13.812;2022-08-19T12:29:39;99091.03;;;23.67;84.63
39267;BME280;24967;51.154;13.812;2022-08-19T12:32:06;99097.13;;;23.74;82.54
39267;BME280;24967;51.154;13.812;2022-08-19T12:34:34;99101.31;;;23.98;81.46
39267;BME280;24967;51.154;13.812;2022-08-19T12:37:05;99089.31;;;23.94;81.05
39267;BME280;24967;51.154;13.812;2022-08-19T12:39:34;99080.91;;;23.96;80.86
39267;BME280;24967;51.154;13.812;2022-08-19T12:42:00;99091.03;;;24.00;80.98
39267;BME280;24967;51.154;13.812;2022-08-19T12:44:27;99089.31;;;23.77;80.93
39267;BME280;24967;51.154;13.812;2022-08-19T12:46:54;99089.41;;;23.83;80.29
39267;BME280;24967;51.154;13.812;2022-08-19T12:49:20;99093.69;;;23.79;79.94
39267;BME280;24967;51.154;13.812;2022-08-19T12:51:47;99093.59;;;23.73;80.21
39267;BME280;24967;51.154;13.812;2022-08-19T12:54:14;99099.19;;;23.84;79.56
39267;BME280;24967;51.154;13.812;2022-08-19T12:56:41;99100.09;;;23.89;80.05